Time;durP1;ratioP1;P1;durP2;ratioP2;P2;SDS_P1;SDS_P2;PMS_P1;PMS_P2;Temp;Humidity;BMP_temperature;BMP_pressure;BME280_temperature;BME280_humidity;BME280_pressure;Samples;Min_cycle;Max_cycle;Signal;HPM_P1;HPM_P2
2024/03/17 00:02:01;;;;;;;23.13;12.57;;;7.50;99.90;;;;;;782403;183;26490;-84
2024/03/17 00:04:27;;;;;;;24.03;12.60;;;7.40;99.90;;;;;;798060;180;26566;-81
2024/03/17 00:06:54;;;;;;;27.77;14.33;;;7.40;99.90;;;;;;794933;180;26450;-82
2024/03/17 00:09:20;;;;;;;20.40;13.03;;;7.40;99.90;;;;;;791602;180;26499;-82
2024/03/17 00:11:47;;;;;;;28.47;14.37;;;7.40;99.90;;;;;;791817;180;26449;-83
2024/03/17 00:14:13;;;;;;;23.17;13.23;;;7.40;99.90;;;;;;797865;180;26474;-81
2024/03/17 00:16:44;;;;;;;25.27;13.73;;;7.30;99.90;;;;;;794230;180;26476;-82
2024/03/17 00:19:11;;;;;;;22.23;12.43;;;7.30;99.90;;;;;;800797;180;26442;-82
2024/03/17 00:21:38;;;;;;;26.67;15.07;;;7.30;99.90;;;;;;793708;180;26489;-82
2024/03/17 00:24:04;;;;;;;23.40;13.30;;;7.30;99.90;;;;;;793720;180;26482;-81
2024/03/17 00:26:31;;;;;;;22.60;13.90;;;7.30;99.90;;;;;;794804;180;26427;-81
2024/03/17 00:29:00;;;;;;;20.87;12.93;;;7.30;99.90;;;;;;792465;180;26450;-83
2024/03/17 00:31:28;;;;;;;26.00;14.20;;;7.20;99.90;;;;;;792880;180;26711;-82
2024/03/17 00:33:58;;;;;;;32.47;16.43;;;7.10;99.90;;;;;;783161;180;26453;-82
2024/03/17 00:36:24;;;;;;;29.07;15.83;;;7.10;99.90;;;;;;800606;180;26484;-83
2024/03/17 00:38:52;;;;;;;25.10;13.60;;;7.20;99.90;;;;;;785063;183;26445;-82
2024/03/17 00:41:25;;;;;;;25.17;14.37;;;7.20;99.90;;;;;;783484;183;26531;-80
2024/03/17 00:43:52;;;;;;;26.27;13.70;;;7.10;99.90;;;;;;782787;184;26453;-79
2024/03/17 00:46:21;;;;;;;25.57;15.03;;;7.00;99.90;;;;;;784197;183;26464;-81
2024/03/17 00:48:49;;;;;;;25.97;14.07;;;7.00;99.90;;;;;;785067;183;26470;-80
2024/03/17 00:51:15;;;;;;;28.20;15.63;;;7.10;99.90;;;;;;784364;179;26506;-81
2024/03/17 00:53:42;;;;;;;21.97;12.77;;;7.10;99.90;;;;;;782335;183;26641;-80
2024/03/17 00:56:08;;;;;;;22.73;13.20;;;7.10;99.90;;;;;;786901;180;26478;-81
2024/03/17 00:58:35;;;;;;;27.87;13.47;;;7.10;99.90;;;;;;785850;182;27049;-81
2024/03/17 01:01:01;;;;;;;24.27;12.63;;;7.10;99.90;;;;;;784049;180;26493;-79
2024/03/17 01:03:28;;;;;;;23.83;13.53;;;7.10;99.90;;;;;;784542;183;26489;-81
2024/03/17 01:05:55;;;;;;;22.10;13.20;;;7.20;99.90;;;;;;786940;183;26465;-82
2024/03/17 01:08:21;;;;;;;23.60;15.03;;;7.20;99.90;;;;;;783342;183;26485;-80
2024/03/17 01:10:50;;;;;;;24.37;14.53;;;7.10;99.90;;;;;;782896;183;26492;-80
2024/03/17 01:13:17;;;;;;;24.67;13.17;;;7.10;99.90;;;;;;782618;184;26489;-79
2024/03/17 01:15:44;;;;;;;24.27;13.93;;;7.00;99.90;;;;;;782488;183;26511;-78
2024/03/17 01:18:10;;;;;;;22.07;14.27;;;6.90;99.90;;;;;;782368;183;26480;-79
2024/03/17 01:20:37;;;;;;;25.97;13.27;;;6.90;99.90;;;;;;772275;175;26540;-79
2024/03/17 01:23:04;;;;;;;25.80;13.23;;;6.90;99.90;;;;;;772242;184;27096;-78
2024/03/17 01:25:31;;;;;;;20.33;12.90;;;6.90;99.90;;;;;;771688;184;26546;-79
2024/03/17 01:27:57;;;;;;;24.03;13.53;;;6.80;99.90;;;;;;771451;184;26499;-78
2024/03/17 01:30:24;;;;;;;21.83;12.93;;;6.90;99.90;;;;;;769559;185;27096;-79
2024/03/17 01:32:50;;;;;;;21.33;12.83;;;6.90;99.90;;;;;;774199;185;26477;-79
2024/03/17 01:35:17;;;;;;;22.73;13.53;;;6.90;99.90;;;;;;774479;185;26518;-78
2024/03/17 01:37:44;;;;;;;23.03;12.90;;;6.90;99.90;;;;;;775686;185;26499;-82
2024/03/17 01:40:11;;;;;;;26.13;13.87;;;6.90;99.90;;;;;;768158;180;26570;-78
2024/03/17 01:42:38;;;;;;;23.50;13.07;;;6.80;99.90;;;;;;766887;185;26573;-80
2024/03/17 01:45:29;;;;;;;23.30;13.20;;;6.80;99.90;;;;;;776410;185;26516;-79
2024/03/17 01:47:57;;;;;;;25.37;13.20;;;6.80;99.90;;;;;;771310;184;27029;-79
2024/03/17 01:50:24;;;;;;;19.50;12.23;;;6.70;99.90;;;;;;774156;185;26535;-78
2024/03/17 01:52:48;;;;;;;18.63;12.33;;;6.70;99.90;;;;;;773759;185;26538;-79
2024/03/17 01:55:15;;;;;;;23.60;13.13;;;6.70;99.90;;;;;;767783;185;26521;-79
2024/03/17 01:57:41;;;;;;;21.17;12.80;;;6.70;99.90;;;;;;771543;182;26529;-78
2024/03/17 02:00:09;;;;;;;21.33;13.20;;;6.60;99.90;;;;;;774600;185;26549;-77
2024/03/17 02:02:35;;;;;;;25.43;13.63;;;6.60;99.90;;;;;;771070;185;26524;-79
2024/03/17 02:05:03;;;;;;;23.47;13.50;;;6.60;99.90;;;;;;776294;185;26494;-79
2024/03/17 02:07:28;;;;;;;20.70;13.57;;;6.60;99.90;;;;;;776133;179;26489;-79
2024/03/17 02:09:55;;;;;;;22.23;13.43;;;6.60;99.90;;;;;;779981;179;26507;-77
2024/03/17 02:12:21;;;;;;;22.67;12.90;;;6.60;99.90;;;;;;778119;184;26474;-79
2024/03/17 02:14:48;;;;;;;21.80;13.10;;;6.50;99.90;;;;;;776669;184;26492;-79
2024/03/17 02:17:14;;;;;;;22.07;13.30;;;6.40;99.90;;;;;;777897;184;26486;-80
2024/03/17 02:19:41;;;;;;;25.13;12.80;;;6.40;99.90;;;;;;777518;185;26620;-79
2024/03/17 02:22:10;;;;;;;22.77;13.20;;;6.30;99.90;;;;;;778568;185;26539;-80
2024/03/17 02:24:37;;;;;;;20.50;13.50;;;6.30;99.90;;;;;;777048;184;26506;-79
2024/03/17 02:27:04;;;;;;;27.23;13.97;;;6.20;99.90;;;;;;773515;185;26477;-79
2024/03/17 02:29:30;;;;;;;21.07;13.47;;;6.20;99.90;;;;;;776610;185;26498;-78
2024/03/17 02:31:57;;;;;;;21.53;13.10;;;6.20;99.90;;;;;;774442;184;26496;-78
2024/03/17 02:34:23;;;;;;;23.40;14.20;;;6.30;99.90;;;;;;774711;185;27119;-78
2024/03/17 02:36:50;;;;;;;25.73;14.03;;;6.20;99.90;;;;;;774877;185;26481;-78
2024/03/17 02:41:49;;;;;;;20.93;14.03;;;6.20;99.90;;;;;;776799;185;26568;-78
2024/03/17 02:44:15;;;;;;;27.53;14.57;;;6.10;99.90;;;;;;775967;182;26524;-78
2024/03/17 02:46:42;;;;;;;24.67;14.47;;;6.10;99.90;;;;;;775319;185;26499;-77
2024/03/17 02:49:13;;;;;;;21.27;13.90;;;6.10;99.90;;;;;;771930;185;26535;-78
2024/03/17 02:51:35;;;;;;;23.70;13.57;;;6.20;99.90;;;;;;775344;185;27043;-78
2024/03/17 02:54:02;;;;;;;25.47;15.00;;;6.20;99.90;;;;;;775082;185;26486;-78
2024/03/17 02:56:28;;;;;;;29.27;14.50;;;6.20;99.90;;;;;;772223;185;28829;-78
2024/03/17 02:58:55;;;;;;;26.57;14.50;;;6.10;99.90;;;;;;772245;185;26491;-79
2024/03/17 03:01:21;;;;;;;22.00;13.70;;;6.10;99.90;;;;;;775801;185;26492;-79
2024/03/17 03:03:48;;;;;;;30.10;16.60;;;6.00;99.90;;;;;;773339;185;26492;-75
2024/03/17 03:06:15;;;;;;;25.80;14.70;;;6.00;99.90;;;;;;776120;185;27029;-79
2024/03/17 03:08:41;;;;;;;28.20;15.17;;;6.00;99.90;;;;;;776842;185;26493;-79
2024/03/17 03:11:10;;;;;;;24.40;14.07;;;6.10;99.90;;;;;;777820;185;26654;-79
2024/03/17 03:13:34;;;;;;;30.60;13.90;;;6.10;99.90;;;;;;775557;185;26632;-78
2024/03/17 03:16:01;;;;;;;28.23;14.10;;;6.00;99.90;;;;;;773417;185;26532;-79
2024/03/17 03:18:28;;;;;;;23.50;14.17;;;6.00;99.90;;;;;;775828;182;26481;-79
2024/03/17 03:20:54;;;;;;;23.20;14.77;;;5.90;99.90;;;;;;775316;184;26515;-79
2024/03/17 03:23:21;;;;;;;22.80;14.17;;;5.90;99.90;;;;;;777851;184;26665;-79
2024/03/17 03:25:47;;;;;;;21.73;13.07;;;5.90;99.90;;;;;;775737;184;26476;-79
2024/03/17 03:28:14;;;;;;;25.47;14.10;;;5.90;99.90;;;;;;771692;185;26495;-78
2024/03/17 03:30:41;;;;;;;24.63;14.10;;;5.90;99.90;;;;;;776800;184;26501;-78
2024/03/17 03:33:07;;;;;;;22.30;14.20;;;5.90;99.90;;;;;;777571;184;27060;-78
2024/03/17 03:35:34;;;;;;;23.53;14.27;;;5.90;99.90;;;;;;777293;185;27015;-79
2024/03/17 03:38:00;;;;;;;25.80;14.03;;;5.90;99.90;;;;;;774250;185;26731;-77
2024/03/17 03:40:27;;;;;;;21.50;13.87;;;5.80;99.90;;;;;;768565;185;27072;-78
2024/03/17 03:42:54;;;;;;;24.87;13.37;;;5.90;99.90;;;;;;773785;185;26495;-78
2024/03/17 03:45:20;;;;;;;25.57;13.87;;;5.90;99.90;;;;;;773448;185;27039;-79
2024/03/17 03:47:47;;;;;;;23.30;13.73;;;5.80;99.90;;;;;;776694;185;26525;-79
2024/03/17 03:50:13;;;;;;;25.87;14.40;;;5.80;99.90;;;;;;774168;185;26516;-79
2024/03/17 03:52:42;;;;;;;26.27;13.93;;;5.80;99.90;;;;;;777097;185;26483;-78
2024/03/17 03:55:10;;;;;;;23.47;14.57;;;5.80;99.90;;;;;;769266;185;27680;-79
2024/03/17 03:57:35;;;;;;;22.50;13.77;;;5.80;99.90;;;;;;766595;185;26529;-79
2024/03/17 04:00:05;;;;;;;20.53;14.43;;;5.70;99.90;;;;;;770103;185;26471;-78
2024/03/17 04:02:31;;;;;;;22.90;14.77;;;5.70;99.90;;;;;;771909;185;26508;-78
2024/03/17 04:04:55;;;;;;;21.33;12.50;;;5.70;99.90;;;;;;777743;185;26492;-79
2024/03/17 04:07:21;;;;;;;22.37;14.37;;;5.70;99.90;;;;;;774244;185;26474;-78
2024/03/17 04:09:48;;;;;;;22.03;13.70;;;5.70;99.90;;;;;;775049;185;26472;-79
2024/03/17 04:12:15;;;;;;;21.43;13.00;;;5.70;99.90;;;;;;776617;181;27722;-79
2024/03/17 04:14:41;;;;;;;21.73;13.60;;;5.80;99.90;;;;;;776435;185;26479;-79
2024/03/17 04:17:08;;;;;;;21.67;13.97;;;5.80;99.90;;;;;;775627;184;26483;-79
2024/03/17 04:19:34;;;;;;;18.67;13.23;;;5.80;99.90;;;;;;772114;185;26481;-78
2024/03/17 04:22:01;;;;;;;24.60;14.20;;;5.80;99.90;;;;;;776239;185;26478;-80
2024/03/17 04:24:27;;;;;;;21.90;14.53;;;5.90;99.90;;;;;;772604;185;26475;-80
2024/03/17 04:26:55;;;;;;;19.70;12.57;;;5.90;99.90;;;;;;774317;185;27094;-80
2024/03/17 04:29:21;;;;;;;25.40;14.00;;;5.90;99.90;;;;;;770693;185;26553;-80
2024/03/17 04:31:48;;;;;;;22.87;13.33;;;6.00;99.90;;;;;;774347;183;26484;-77
2024/03/17 04:34:15;;;;;;;19.90;13.03;;;6.00;99.90;;;;;;774209;184;26545;-79
2024/03/17 04:36:41;;;;;;;21.73;13.73;;;6.00;99.90;;;;;;774590;184;27068;-78
2024/03/17 04:39:08;;;;;;;18.10;12.07;;;6.00;99.90;;;;;;771784;184;26477;-79
2024/03/17 04:41:34;;;;;;;23.67;13.30;;;6.00;99.90;;;;;;771802;185;26484;-79
2024/03/17 04:44:01;;;;;;;23.93;13.93;;;6.10;99.90;;;;;;778814;185;26536;-79
2024/03/17 04:46:28;;;;;;;19.30;11.87;;;6.10;99.90;;;;;;773382;185;26626;-78
2024/03/17 04:48:54;;;;;;;21.43;12.60;;;6.10;99.90;;;;;;775925;185;26491;-78
2024/03/17 04:51:21;;;;;;;19.63;12.37;;;6.10;99.90;;;;;;773433;185;26534;-78
2024/03/17 04:53:48;;;;;;;21.53;12.90;;;6.20;99.90;;;;;;772688;185;26473;-78
2024/03/17 04:56:15;;;;;;;24.30;12.23;;;6.20;99.90;;;;;;771622;185;26482;-78
2024/03/17 04:58:42;;;;;;;18.67;12.57;;;6.10;99.90;;;;;;777517;185;26472;-79
2024/03/17 05:01:08;;;;;;;21.73;12.03;;;6.10;99.90;;;;;;773451;180;26466;-78
2024/03/17 05:03:35;;;;;;;17.93;11.87;;;6.10;99.90;;;;;;775780;180;26461;-78
2024/03/17 05:06:02;;;;;;;16.47;11.23;;;6.10;99.90;;;;;;777117;185;26498;-78
2024/03/17 05:08:29;;;;;;;18.43;11.47;;;6.00;99.90;;;;;;771498;185;26599;-79
2024/03/17 05:10:58;;;;;;;18.43;11.57;;;6.00;99.90;;;;;;767173;185;27040;-79
2024/03/17 05:13:24;;;;;;;20.57;11.13;;;6.00;99.90;;;;;;775826;185;27039;-79
2024/03/17 05:15:51;;;;;;;19.03;11.70;;;6.00;99.90;;;;;;773337;185;26502;-80
2024/03/17 05:18:18;;;;;;;20.20;11.77;;;5.90;99.90;;;;;;776578;185;27010;-78
2024/03/17 05:20:44;;;;;;;19.77;11.80;;;5.90;99.90;;;;;;773073;185;26695;-79
2024/03/17 05:23:11;;;;;;;23.03;12.50;;;5.90;99.90;;;;;;776927;185;27041;-78
2024/03/17 05:25:37;;;;;;;17.93;10.57;;;5.90;99.90;;;;;;776159;185;26470;-79
2024/03/17 05:28:04;;;;;;;16.70;11.33;;;5.90;99.90;;;;;;778405;185;26622;-79
2024/03/17 05:30:31;;;;;;;19.90;11.40;;;5.80;99.90;;;;;;770899;185;26592;-79
2024/03/17 05:32:57;;;;;;;19.63;10.67;;;5.80;99.90;;;;;;777569;185;26477;-79
2024/03/17 05:35:25;;;;;;;20.57;11.27;;;5.80;99.90;;;;;;776262;182;26484;-77
2024/03/17 05:37:51;;;;;;;18.10;11.37;;;5.80;99.90;;;;;;768809;185;26496;-78
2024/03/17 05:40:17;;;;;;;21.67;11.17;;;5.80;99.90;;;;;;774592;185;27025;-78
2024/03/17 05:42:44;;;;;;;19.07;11.73;;;5.80;99.90;;;;;;770711;184;26479;-79
2024/03/17 05:45:11;;;;;;;16.97;10.53;;;5.80;99.90;;;;;;778354;184;27106;-80
2024/03/17 05:47:38;;;;;;;19.73;11.00;;;5.80;99.90;;;;;;777631;184;26507;-79
2024/03/17 05:50:05;;;;;;;20.80;11.97;;;5.80;99.90;;;;;;777326;184;27045;-79
2024/03/17 05:52:31;;;;;;;19.10;12.00;;;5.80;99.90;;;;;;777468;185;26540;-79
2024/03/17 05:54:58;;;;;;;21.47;11.47;;;5.70;99.90;;;;;;776789;185;26471;-79
2024/03/17 05:57:24;;;;;;;18.00;11.47;;;5.70;99.90;;;;;;777164;185;26489;-78
2024/03/17 05:59:51;;;;;;;19.87;13.00;;;5.70;99.90;;;;;;772913;185;26654;-78
2024/03/17 06:02:18;;;;;;;19.87;12.53;;;5.70;99.90;;;;;;772314;182;26472;-79
2024/03/17 06:04:44;;;;;;;21.17;13.00;;;5.60;99.90;;;;;;775919;183;27068;-79
2024/03/17 06:07:11;;;;;;;19.33;11.87;;;5.60;99.90;;;;;;776687;185;26523;-78
2024/03/17 06:09:38;;;;;;;21.57;12.17;;;5.60;99.90;;;;;;776094;185;27007;-78
2024/03/17 06:12:04;;;;;;;21.50;12.37;;;5.60;99.90;;;;;;776995;185;26524;-78
2024/03/17 06:14:31;;;;;;;19.37;12.80;;;5.60;99.90;;;;;;776299;185;27044;-78
2024/03/17 06:16:57;;;;;;;21.00;12.50;;;5.60;99.90;;;;;;774721;185;26462;-78
2024/03/17 06:19:24;;;;;;;19.87;12.13;;;5.60;99.90;;;;;;775937;185;26521;-79
2024/03/17 06:21:51;;;;;;;17.07;11.73;;;5.60;99.90;;;;;;776041;185;26485;-77
2024/03/17 06:24:17;;;;;;;18.10;12.03;;;5.70;99.90;;;;;;775740;185;26483;-79
2024/03/17 06:26:44;;;;;;;20.00;13.43;;;5.60;99.90;;;;;;779078;184;26498;-79
2024/03/17 06:29:11;;;;;;;22.53;12.40;;;5.70;99.90;;;;;;778694;181;26494;-78
2024/03/17 06:31:37;;;;;;;20.57;13.30;;;5.60;99.90;;;;;;769626;185;26597;-79
2024/03/17 06:34:04;;;;;;;21.93;12.17;;;5.70;99.90;;;;;;776734;185;26461;-78
2024/03/17 06:36:30;;;;;;;20.83;11.67;;;5.80;99.90;;;;;;776552;185;26496;-78
2024/03/17 06:38:57;;;;;;;21.73;13.53;;;5.80;99.90;;;;;;776884;185;26559;-78
2024/03/17 06:41:24;;;;;;;17.60;12.27;;;5.80;99.90;;;;;;772449;182;26505;-78
2024/03/17 06:43:50;;;;;;;18.30;12.00;;;5.80;99.90;;;;;;777649;185;26492;-80
2024/03/17 06:46:17;;;;;;;20.53;12.57;;;5.90;99.90;;;;;;773239;184;26498;-76
2024/03/17 06:48:43;;;;;;;22.77;12.13;;;5.90;99.90;;;;;;772880;185;26488;-79
2024/03/17 06:51:10;;;;;;;17.77;11.97;;;6.00;99.90;;;;;;773081;185;26568;-80
2024/03/17 06:53:37;;;;;;;20.97;11.97;;;6.00;99.90;;;;;;779210;183;26474;-80
2024/03/17 06:56:03;;;;;;;21.10;13.33;;;6.10;99.90;;;;;;780548;184;27047;-79
2024/03/17 06:58:30;;;;;;;24.73;14.50;;;6.00;99.90;;;;;;776388;184;26482;-79
2024/03/17 07:00:57;;;;;;;17.93;11.77;;;6.10;99.90;;;;;;774818;184;26484;-79
2024/03/17 07:03:24;;;;;;;19.80;13.13;;;6.10;99.90;;;;;;776706;185;26536;-79
2024/03/17 07:06:01;;;;;;;21.50;11.87;;;6.10;99.90;;;;;;773749;185;26480;-79
2024/03/17 07:08:26;;;;;;;21.83;12.27;;;6.10;99.90;;;;;;773833;185;26543;-80
2024/03/17 07:10:57;;;;;;;20.17;12.93;;;6.20;99.90;;;;;;775274;185;26503;-79
2024/03/17 07:13:24;;;;;;;16.07;11.70;;;6.20;99.90;;;;;;777731;185;27270;-79
2024/03/17 07:15:50;;;;;;;21.33;12.63;;;6.30;99.90;;;;;;777013;185;26494;-81
2024/03/17 07:18:17;;;;;;;19.27;12.00;;;6.30;99.90;;;;;;778598;185;26499;-79
2024/03/17 07:20:43;;;;;;;16.57;11.23;;;6.40;99.90;;;;;;778404;185;26570;-78
2024/03/17 07:23:10;;;;;;;19.90;11.33;;;6.40;99.90;;;;;;777302;185;26519;-78
2024/03/17 07:25:37;;;;;;;18.07;11.13;;;6.60;99.90;;;;;;780310;168;26500;-79
2024/03/17 07:28:07;;;;;;;19.53;10.93;;;6.70;99.90;;;;;;801200;177;26449;-81
2024/03/17 07:30:35;;;;;;;16.53;10.87;;;6.80;99.90;;;;;;805216;177;26451;-81
2024/03/17 07:33:01;;;;;;;17.63;11.07;;;6.80;99.90;;;;;;807690;176;26442;-81
2024/03/17 07:35:28;;;;;;;19.63;11.20;;;7.00;99.90;;;;;;783831;178;26457;-81
2024/03/17 07:37:55;;;;;;;17.67;10.30;;;7.10;99.90;;;;;;782414;180;26475;-83
2024/03/17 07:40:24;;;;;;;17.57;11.33;;;7.10;99.90;;;;;;787157;179;26441;-83
2024/03/17 07:42:53;;;;;;;14.20;9.67;;;7.30;99.90;;;;;;769795;180;26527;-81
2024/03/17 07:45:26;;;;;;;18.87;10.20;;;7.40;99.90;;;;;;770187;180;26484;-80
2024/03/17 07:47:52;;;;;;;16.27;9.53;;;7.40;99.90;;;;;;768376;187;26690;-80
2024/03/17 07:50:21;;;;;;;16.03;10.47;;;7.50;99.90;;;;;;784767;181;26988;-78
2024/03/17 07:53:02;;;;;;;15.53;10.43;;;7.60;99.90;;;;;;781631;182;26527;-79
2024/03/17 07:55:31;;;;;;;14.63;9.37;;;7.70;99.90;;;;;;782816;181;26535;-80
2024/03/17 07:57:58;;;;;;;16.33;10.30;;;7.70;99.90;;;;;;784816;180;26469;-80
2024/03/17 08:00:27;;;;;;;18.77;11.33;;;7.80;99.90;;;;;;767547;186;26820;-81
2024/03/17 08:03:04;;;;;;;14.83;10.27;;;7.90;99.90;;;;;;781563;183;26467;-80
2024/03/17 08:05:35;;;;;;;13.83;9.30;;;8.10;99.90;;;;;;771844;185;27056;-82
2024/03/17 08:08:12;;;;;;;17.80;9.77;;;8.20;99.90;;;;;;796906;170;26960;-81
2024/03/17 08:13:43;;;;;;;14.23;10.27;;;8.50;99.90;;;;;;809836;175;35173;-80
2024/03/17 08:16:11;;;;;;;13.17;8.23;;;8.70;99.90;;;;;;801010;179;26596;-81
2024/03/17 08:18:39;;;;;;;12.63;8.83;;;8.90;99.90;;;;;;798517;179;26461;-81
2024/03/17 08:21:08;;;;;;;15.57;9.10;;;8.90;99.90;;;;;;791450;180;26452;-79
2024/03/17 08:23:39;;;;;;;13.40;8.20;;;9.10;99.90;;;;;;806491;177;26429;-79
2024/03/17 08:26:02;;;;;;;14.67;8.77;;;9.20;99.90;;;;;;800908;177;26462;-81
2024/03/17 08:28:30;;;;;;;12.43;8.23;;;9.40;99.90;;;;;;803739;176;26436;-80
2024/03/17 08:31:01;;;;;;;14.93;7.90;;;9.40;99.90;;;;;;809042;175;26533;-81
2024/03/17 08:33:27;;;;;;;11.60;8.43;;;9.30;99.90;;;;;;807798;177;26460;-80
2024/03/17 08:36:00;;;;;;;13.53;8.73;;;9.30;99.90;;;;;;807966;176;27038;-79
2024/03/17 08:38:32;;;;;;;13.97;8.23;;;9.50;99.90;;;;;;803952;177;26417;-80
2024/03/17 08:41:13;;;;;;;12.87;8.27;;;9.70;99.90;;;;;;804255;177;26417;-80
2024/03/17 08:43:42;;;;;;;12.77;8.37;;;10.00;99.90;;;;;;807723;176;27065;-80
2024/03/17 08:46:09;;;;;;;10.27;7.93;;;10.30;99.90;;;;;;791517;181;26997;-80
2024/03/17 08:48:37;;;;;;;13.50;7.73;;;10.50;99.90;;;;;;809450;174;26535;-79
2024/03/17 08:51:16;;;;;;;10.73;7.80;;;10.40;99.90;;;;;;802343;177;26417;-80
2024/03/17 08:53:44;;;;;;;9.67;7.17;;;10.40;99.90;;;;;;798753;179;26576;-80
2024/03/17 08:56:17;;;;;;;8.87;7.10;;;10.50;99.90;;;;;;795860;177;26591;-80
2024/03/17 08:58:48;;;;;;;10.27;6.97;;;10.50;99.90;;;;;;805779;177;26447;-80
2024/03/17 09:01:17;;;;;;;9.77;7.07;;;10.50;99.90;;;;;;808749;176;26430;-81
2024/03/17 09:03:49;;;;;;;12.13;7.13;;;10.60;99.90;;;;;;808022;177;26425;-79
2024/03/17 09:06:21;;;;;;;8.60;6.60;;;10.70;99.90;;;;;;808904;176;26493;-82
2024/03/17 09:11:36;;;;;;;11.13;7.07;;;11.10;99.90;;;;;;800221;178;26426;-80
2024/03/17 09:14:18;;;;;;;9.57;6.43;;;11.10;99.90;;;;;;800505;176;26446;-80
2024/03/17 09:16:52;;;;;;;11.13;6.90;;;11.40;99.90;;;;;;808675;177;26447;-80
2024/03/17 09:19:23;;;;;;;8.87;6.50;;;11.50;99.90;;;;;;809836;176;26494;-80
2024/03/17 09:21:53;;;;;;;11.23;6.40;;;11.70;99.90;;;;;;811201;175;26435;-80
2024/03/17 09:24:27;;;;;;;11.60;7.10;;;11.50;99.90;;;;;;806748;174;26525;-80
2024/03/17 09:26:57;;;;;;;9.63;7.47;;;11.30;99.90;;;;;;822364;171;26474;-79
2024/03/17 09:29:23;;;;;;;10.30;6.53;;;11.50;99.90;;;;;;832043;170;26381;-79
2024/03/17 09:31:51;;;;;;;8.63;6.40;;;11.60;99.90;;;;;;817935;173;26987;-81
2024/03/17 09:34:20;;;;;;;10.37;7.53;;;11.70;99.90;;;;;;834384;169;26383;-80
2024/03/17 09:36:48;;;;;;;11.33;6.87;;;11.70;99.90;;;;;;828130;173;26424;-80
2024/03/17 09:39:19;;;;;;;8.30;6.47;;;11.80;99.90;;;;;;845902;169;26397;-79
2024/03/17 09:41:51;;;;;;;10.67;6.17;;;11.90;99.90;;;;;;844214;167;26997;-81
2024/03/17 09:44:19;;;;;;;9.63;6.50;;;11.90;99.90;;;;;;846397;169;26370;-82
2024/03/17 09:46:46;;;;;;;12.20;6.93;;;12.10;99.90;;;;;;848276;169;26444;-80
2024/03/17 09:49:20;;;;;;;9.97;6.03;;;12.30;99.90;;;;;;845146;169;26987;-80
2024/03/17 09:51:54;;;;;;;8.10;5.70;;;12.40;99.90;;;;;;848307;168;26965;-80
2024/03/17 09:54:22;;;;;;;11.83;6.50;;;12.40;99.90;;;;;;845212;169;26388;-81
2024/03/17 09:56:52;;;;;;;10.23;6.80;;;12.50;99.90;;;;;;844793;169;26400;-80
2024/03/17 09:59:20;;;;;;;8.80;6.67;;;12.60;99.90;;;;;;846608;168;26376;-83
2024/03/17 10:01:49;;;;;;;10.50;6.53;;;12.80;99.90;;;;;;850495;168;26403;-82
2024/03/17 10:04:22;;;;;;;8.73;6.07;;;13.00;99.90;;;;;;848681;168;26386;-81
2024/03/17 10:06:56;;;;;;;11.97;6.53;;;12.80;98.60;;;;;;844277;169;26373;-83
2024/03/17 10:09:21;;;;;;;9.43;6.10;;;12.80;99.90;;;;;;846179;169;26424;-80
2024/03/17 10:11:45;;;;;;;8.07;6.33;;;12.80;99.90;;;;;;849201;166;26369;-82
2024/03/17 10:14:14;;;;;;;9.77;5.80;;;13.00;99.90;;;;;;847411;169;26376;-82
2024/03/17 10:16:44;;;;;;;7.87;6.03;;;13.10;98.40;;;;;;847151;168;26397;-82
2024/03/17 10:19:14;;;;;;;9.17;6.20;;;13.10;99.90;;;;;;848593;166;26364;-83
2024/03/17 10:21:44;;;;;;;7.77;6.17;;;12.90;99.20;;;;;;846549;167;26372;-81
2024/03/17 10:24:25;;;;;;;10.70;6.37;;;12.70;99.60;;;;;;848043;169;26456;-82
2024/03/17 10:26:52;;;;;;;10.23;6.10;;;12.80;99.90;;;;;;847437;167;26403;-80
2024/03/17 10:29:25;;;;;;;8.93;5.80;;;13.00;99.10;;;;;;848848;168;26396;-80
2024/03/17 10:31:56;;;;;;;9.63;6.33;;;13.10;99.60;;;;;;849941;165;26401;-81
2024/03/17 10:34:24;;;;;;;10.20;6.33;;;13.50;98.30;;;;;;845815;168;26375;-81
2024/03/17 10:36:53;;;;;;;6.50;5.50;;;13.40;98.10;;;;;;846296;168;26389;-81
2024/03/17 10:39:36;;;;;;;11.30;6.17;;;13.50;97.70;;;;;;845359;168;26393;-82
2024/03/17 10:42:02;;;;;;;9.57;5.80;;;13.50;97.70;;;;;;848760;169;26422;-82
2024/03/17 10:44:32;;;;;;;7.90;5.57;;;13.80;97.40;;;;;;848295;169;26388;-81
2024/03/17 10:47:01;;;;;;;8.40;5.30;;;14.10;99.20;;;;;;844015;169;27972;-81
2024/03/17 10:49:31;;;;;;;8.17;4.93;;;14.30;99.60;;;;;;844456;169;26438;-82
2024/03/17 10:51:59;;;;;;;8.67;5.27;;;14.50;95.90;;;;;;845859;169;26392;-82
2024/03/17 10:54:29;;;;;;;8.90;5.07;;;14.90;93.60;;;;;;846704;169;26367;-81
2024/03/17 10:56:56;;;;;;;8.00;5.40;;;15.00;92.70;;;;;;848732;169;26380;-81
2024/03/17 10:59:43;;;;;;;8.63;5.20;;;15.00;92.80;;;;;;846641;169;26404;-85
2024/03/17 11:02:24;;;;;;;6.50;5.33;;;15.10;91.90;;;;;;844154;169;26385;-80
2024/03/17 11:04:59;;;;;;;9.47;5.53;;;14.80;92.60;;;;;;845318;169;26410;-80
2024/03/17 11:07:26;;;;;;;6.70;5.10;;;14.90;92.60;;;;;;843579;168;26389;-79
2024/03/17 11:09:55;;;;;;;9.57;6.07;;;15.20;91.90;;;;;;846531;169;26547;-80
2024/03/17 11:12:35;;;;;;;10.07;6.17;;;15.50;91.50;;;;;;845481;169;26367;-80
2024/03/17 11:15:14;;;;;;;9.40;5.40;;;15.70;90.50;;;;;;846038;169;26353;-80
2024/03/17 11:17:41;;;;;;;10.00;5.20;;;16.00;88.10;;;;;;846869;169;26381;-79
2024/03/17 11:20:13;;;;;;;7.50;5.07;;;16.70;88.00;;;;;;847160;169;26405;-81
2024/03/17 11:22:43;;;;;;;7.67;5.17;;;17.30;80.20;;;;;;844439;168;26365;-81
2024/03/17 11:25:20;;;;;;;9.33;5.43;;;17.70;87.30;;;;;;843191;170;26388;-79
2024/03/17 11:27:47;;;;;;;6.10;4.70;;;18.30;73.00;;;;;;844718;169;26396;-81
2024/03/17 11:30:25;;;;;;;9.13;4.90;;;18.70;83.40;;;;;;844367;169;26377;-79
2024/03/17 11:32:52;;;;;;;6.60;4.67;;;19.50;74.30;;;;;;845073;169;26369;-78
2024/03/17 11:35:19;;;;;;;8.60;5.07;;;20.10;63.80;;;;;;845248;170;26393;-81
2024/03/17 11:37:45;;;;;;;7.97;4.80;;;19.70;62.50;;;;;;839557;169;26377;-81
2024/03/17 11:40:23;;;;;;;11.43;5.50;;;19.60;63.90;;;;;;847180;167;26372;-80
2024/03/17 11:43:00;;;;;;;9.90;5.40;;;19.50;57.60;;;;;;848226;168;26372;-80
2024/03/17 11:45:27;;;;;;;9.67;6.80;;;18.70;64.10;;;;;;848043;169;26367;-81
2024/03/17 11:47:54;;;;;;;8.10;5.73;;;17.40;71.00;;;;;;846971;168;26425;-79
2024/03/17 11:50:22;;;;;;;9.27;5.57;;;17.30;82.80;;;;;;850755;169;26558;-81
2024/03/17 11:52:50;;;;;;;9.80;6.37;;;17.60;80.00;;;;;;848621;169;26946;-80
2024/03/17 11:58:16;;;;;;;;;;;;;;;;;;;;;
2024/03/17 12:00:58;;;;;;;7.57;5.50;;;16.40;92.10;;;;;;846329;168;26384;-82
2024/03/17 12:03:24;;;;;;;8.83;5.60;;;16.50;84.70;;;;;;849505;167;26349;-82
2024/03/17 12:08:45;;;;;;;8.43;5.83;;;16.10;86.70;;;;;;846333;169;26392;-83
2024/03/17 12:11:22;;;;;;;10.87;7.00;;;16.20;90.40;;;;;;795663;178;26461;-82
2024/03/17 12:13:49;;;;;;;9.27;5.87;;;16.30;87.40;;;;;;798606;180;26446;-82
2024/03/17 12:16:16;;;;;;;9.50;6.43;;;16.50;92.30;;;;;;795399;176;26567;-82
2024/03/17 12:19:01;;;;;;;9.33;6.00;;;16.40;88.50;;;;;;765636;187;27132;-80
2024/03/17 12:21:28;;;;;;;8.60;6.27;;;15.80;89.40;;;;;;779783;182;26563;-82
2024/03/17 12:23:55;;;;;;;11.30;6.43;;;15.70;95.60;;;;;;768646;183;26544;-82
2024/03/17 12:26:21;;;;;;;8.33;5.77;;;15.80;91.70;;;;;;783453;180;27042;-83
2024/03/17 12:31:35;;;;;;;12.80;6.20;;;15.90;93.40;;;;;;785217;183;26434;-82
2024/03/17 12:34:01;;;;;;;8.97;5.67;;;15.90;94.70;;;;;;783016;183;26656;-83
2024/03/17 12:36:28;;;;;;;8.40;6.43;;;16.00;92.60;;;;;;780659;183;26557;-81
2024/03/17 12:38:58;;;;;;;11.53;5.97;;;16.00;91.10;;;;;;781349;183;26531;-84
2024/03/17 12:41:28;;;;;;;9.83;6.13;;;15.90;94.30;;;;;;779509;183;26557;-84
2024/03/17 12:43:59;;;;;;;11.90;5.87;;;16.20;92.40;;;;;;782836;181;26477;-83
2024/03/17 12:46:29;;;;;;;8.33;5.63;;;16.40;93.80;;;;;;767602;185;26517;-83
2024/03/17 12:48:59;;;;;;;8.37;5.97;;;16.40;91.60;;;;;;780875;184;26474;-83
2024/03/17 12:51:33;;;;;;;11.30;6.80;;;16.30;92.60;;;;;;777879;182;26466;-82
2024/03/17 12:54:29;;;;;;;12.87;7.60;;;16.30;92.80;;;;;;768394;186;26650;-82
2024/03/17 13:05:06;;;;;;;8.00;5.97;;;16.50;90.80;;;;;;785405;181;26510;-81
2024/03/17 13:07:42;;;;;;;9.70;5.90;;;16.30;92.50;;;;;;785311;180;26465;-83
2024/03/17 13:10:15;;;;;;;9.10;5.23;;;16.40;91.70;;;;;;785050;178;26498;-80
2024/03/17 13:12:47;;;;;;;11.53;5.40;;;16.30;91.70;;;;;;769985;172;26483;-80